EDDEENCN

Guest
Details From EDDE - Erfurt
To ENCN - Kjevik
Flight Number -
Tags Generated
Created
Modified
Stats Distance 446 nm / 826 km
Max Altitude 0 ft / 0 m
Waypoints 4
Social Downloads 1
Likes 0
Share VATSIM

Download

Looking for another format? Having issues loading an existing format? Contact us
Advertisement - Login to hide

Notes

Generated

Route

EDDE MALID ODR ENCN

ID Type Via Altitude Latitude Longitude Leg Dist Tot Dist Heading (true) Name
O EDDE APT - 0 ft / 0 m 50.98148˚ 10.93975˚ - 0 nm - -
MALID FIX - 0 ft / 0 m 54.64833˚ 9.57694˚ 225 nm 225 nm 348° / 347° -
ODR NDB - 0 ft / 0 m 58.14002˚ 7.99903˚ 216 nm 441 nm 347° / 345° ODDEROY NDB
O ENCN APT - 0 ft / 0 m 58.19670˚ 8.07541˚ 4 nm 446 nm 35° / 35° -

Altitude Profile

Advertisement - Login to hide

Weather


0- 5 10 15 20 25 30 35+ Temperature / ° C

Clouds and Precipitation
Forecast for 2017-12-18 00:00 UTC. Updated 35 minutes ago

Ground ~20,000 ft ~40,000 ft Winds

EDDE

Details ICAO EDDE (ERF)
Name Erfurt
Region Germany - Civil
Timezone Europe/Berlin (UTC+1.0)
Stats Elevation 1,035 ft / 315 m (AMSL)
Location 50.979808° 10.958105°
Runways 1
Magnetic Variation 3.026° E

METAR

EDDE 172120Z 23006KT 9999 FEW033 BKN040 M00/M01 Q1022

Decode

TAF

TAF EDDE 171700Z 1718/1818 25007KT 9999 SCT020 BKN030 BECMG 1800/1802 19008KT BECMG 1810/1812 VRB03KT

Decode

Departure Runways

ID Width Length Bearing (true) Bearing (mag) Surface Threshold Offset Overrun Length
10 164 ft / 50 m 8,523 ft / 2,598 m 98.24° 95.21° Asphalt 0 ft / 0 m 0 ft / 0 m
28 164 ft / 50 m 8,523 ft / 2,598 m 278.27° 275.24° Asphalt 656 ft / 200 m 0 ft / 0 m

ENCN

Details ICAO ENCN (KRS)
Name Kristiansand lufthavn Kjevik
Region Norway
Timezone Europe/Oslo (UTC+1.0)
Stats Elevation 57 ft / 17 m (AMSL)
Location 58.204191° 8.085337°
Runways 1
Magnetic Variation 2.113° E

METAR

ENCN 172120Z 06006KT 9999 -FZDZ FEW007 BKN015 M03/M04 Q1012

Decode

TAF

Not found

Destination Runways

ID Width Length Bearing (true) Bearing (mag) Surface Threshold Offset Overrun Length
04 148 ft / 45 m 6,667 ft / 2,032 m 34.94° 32.83° Asphalt 217 ft / 66 m 131 ft / 40 m
22 148 ft / 45 m 6,667 ft / 2,032 m 214.96° 212.85° Asphalt 325 ft / 99 m 312 ft / 95 m

Approach Navaids

Runway Type Ident Frequency Range Bearing (true) Bearing (mag) Slope Elevation
04 Localiser CN 110.30 MHz 18 nm / 33 km 34.96° 32.85° - 57 ft / 17 m (AMSL)
04 Glidescope CN 110.30 MHz 10 nm / 19 km 34.95° 32.84° 3.40° 57 ft / 17 m (AMSL)
22 Localiser KJ 110.90 MHz 18 nm / 33 km 214.94° 212.83° - 57 ft / 17 m (AMSL)
22 Glidescope KJ 110.90 MHz 10 nm / 19 km 214.95° 212.84° 3.60° 57 ft / 17 m (AMSL)